Time;durP1;ratioP1;P1;durP2;ratioP2;P2;SDS_P1;SDS_P2;PMS_P1;PMS_P2;Temp;Humidity;BMP_temperature;BMP_pressure;BME280_temperature;BME280_humidity;BME280_pressure;Samples;Min_cycle;Max_cycle;Signal;HPM_P1;HPM_P2
2021/11/26 00:00:45;;;;;;;23.17;15.83;;;;;;;;;;5009099;28;20188;-51
2021/11/26 00:03:11;;;;;;;26.67;15.57;;;;;;;;;;4992848;28;20550;-51
2021/11/26 00:05:37;;;;;;;23.70;16.27;;;;;;;;;;5029174;28;20686;-51
2021/11/26 00:08:04;;;;;;;23.63;16.20;;;;;;;;;;5028337;28;20173;-51
2021/11/26 00:10:30;;;;;;;26.67;17.13;;;;;;;;;;5028080;28;20182;-50
2021/11/26 00:13:04;;;;;;;24.70;15.30;;;;;;;;;;5027203;28;20247;-51
2021/11/26 00:18:03;;;;;;;25.50;16.27;;;;;;;;;;5026834;28;20182;-51
2021/11/26 00:20:30;;;;;;;24.93;15.77;;;;;;;;;;5000087;28;20645;-52
2021/11/26 00:22:56;;;;;;;26.07;16.00;;;;;;;;;;5010397;28;20536;-50
2021/11/26 00:25:22;;;;;;;24.20;15.17;;;;;;;;;;5028599;28;20201;-53
2021/11/26 00:27:48;;;;;;;29.00;15.33;;;;;;;;;;5027951;28;20186;-51
2021/11/26 00:30:15;;;;;;;28.77;16.20;;;;;;;;;;5015530;28;20197;-51
2021/11/26 00:32:41;;;;;;;27.50;17.10;;;;;;;;;;4992988;28;20582;-51
2021/11/26 00:35:08;;;;;;;27.30;16.00;;;;;;;;;;5023030;28;20189;-53
2021/11/26 00:37:34;;;;;;;22.67;15.73;;;;;;;;;;5000443;28;20325;-51
2021/11/26 00:40:00;;;;;;;27.07;16.20;;;;;;;;;;5010166;28;20178;-51
2021/11/26 00:42:27;;;;;;;24.53;16.00;;;;;;;;;;5027316;28;20535;-51
2021/11/26 00:44:56;;;;;;;29.67;16.07;;;;;;;;;;5028154;28;20649;-51
2021/11/26 00:47:26;;;;;;;24.90;16.77;;;;;;;;;;5027125;28;20170;-50
2021/11/26 00:49:53;;;;;;;23.00;15.37;;;;;;;;;;5010604;28;20217;-51
2021/11/26 00:52:19;;;;;;;23.13;14.83;;;;;;;;;;5010454;28;20174;-51
2021/11/26 00:54:46;;;;;;;23.57;14.47;;;;;;;;;;5009999;28;20189;-51
2021/11/26 00:57:12;;;;;;;23.50;15.93;;;;;;;;;;5027703;28;20201;-52
2021/11/26 00:59:38;;;;;;;23.37;15.27;;;;;;;;;;5026649;28;20205;-51
2021/11/26 01:02:05;;;;;;;26.63;16.50;;;;;;;;;;5009008;28;20722;-52
2021/11/26 01:04:32;;;;;;;22.47;14.67;;;;;;;;;;5027708;28;20595;-51
2021/11/26 01:06:59;;;;;;;22.30;14.73;;;;;;;;;;5008968;28;20185;-52
2021/11/26 01:09:25;;;;;;;24.03;15.93;;;;;;;;;;5025805;28;20240;-52
2021/11/26 01:11:51;;;;;;;20.70;15.00;;;;;;;;;;5021623;28;20189;-53
2021/11/26 01:14:17;;;;;;;26.33;16.70;;;;;;;;;;5010198;28;20189;-51
2021/11/26 01:16:43;;;;;;;24.37;15.73;;;;;;;;;;5026546;28;20186;-51
2021/11/26 01:19:10;;;;;;;22.97;14.87;;;;;;;;;;5027759;28;20196;-52
2021/11/26 01:21:36;;;;;;;24.80;15.40;;;;;;;;;;5028070;28;20235;-50
2021/11/26 01:24:02;;;;;;;24.80;15.67;;;;;;;;;;5027943;28;20288;-51
2021/11/26 01:26:28;;;;;;;24.17;15.80;;;;;;;;;;5029393;28;20182;-52
2021/11/26 01:28:55;;;;;;;25.07;15.00;;;;;;;;;;5014265;28;20184;-50
2021/11/26 01:31:21;;;;;;;25.23;15.23;;;;;;;;;;5012489;28;20184;-50
2021/11/26 01:33:47;;;;;;;21.20;14.20;;;;;;;;;;5030640;28;20190;-50
2021/11/26 01:36:14;;;;;;;25.37;15.50;;;;;;;;;;5013429;28;20205;-52
2021/11/26 01:38:40;;;;;;;25.67;14.83;;;;;;;;;;5031074;28;20186;-52
2021/11/26 01:41:09;;;;;;;24.83;14.87;;;;;;;;;;5032226;28;20257;-51
2021/11/26 01:43:36;;;;;;;23.60;14.73;;;;;;;;;;5021947;28;20249;-53
2021/11/26 01:46:07;;;;;;;26.30;15.17;;;;;;;;;;5030082;28;20239;-51
2021/11/26 01:48:34;;;;;;;26.03;14.97;;;;;;;;;;5029560;28;20352;-51
2021/11/26 01:51:00;;;;;;;24.37;14.53;;;;;;;;;;5020349;28;20179;-52
2021/11/26 01:53:30;;;;;;;23.60;15.50;;;;;;;;;;5013234;28;20216;-52
2021/11/26 01:55:57;;;;;;;22.53;15.80;;;;;;;;;;5029883;28;20572;-50
2021/11/26 01:58:23;;;;;;;25.83;15.73;;;;;;;;;;5025648;28;20656;-52
2021/11/26 02:00:50;;;;;;;28.20;15.50;;;;;;;;;;5013028;28;20186;-52
2021/11/26 02:03:16;;;;;;;24.07;14.73;;;;;;;;;;5011581;28;20190;-51
2021/11/26 02:05:42;;;;;;;26.33;15.47;;;;;;;;;;5030583;28;20691;-51
2021/11/26 02:08:12;;;;;;;24.93;16.30;;;;;;;;;;5031823;28;20655;-51
2021/11/26 02:10:39;;;;;;;24.30;15.37;;;;;;;;;;5012837;28;20544;-52
2021/11/26 02:13:06;;;;;;;28.07;16.57;;;;;;;;;;5011787;28;20178;-52
2021/11/26 02:15:40;;;;;;;23.87;15.73;;;;;;;;;;4998336;28;20182;-51
2021/11/26 02:18:06;;;;;;;28.83;16.87;;;;;;;;;;5009373;28;20268;-52
2021/11/26 02:20:32;;;;;;;25.10;15.03;;;;;;;;;;5029624;28;20186;-50
2021/11/26 02:22:59;;;;;;;26.27;15.83;;;;;;;;;;5030718;28;20186;-52
2021/11/26 02:25:26;;;;;;;23.53;15.27;;;;;;;;;;5030825;28;20664;-51
2021/11/26 02:27:53;;;;;;;25.73;15.30;;;;;;;;;;5028933;28;20189;-51
2021/11/26 02:30:19;;;;;;;23.00;15.27;;;;;;;;;;5030422;28;20734;-52
2021/11/26 02:32:53;;;;;;;23.27;15.37;;;;;;;;;;5029462;28;20648;-51
2021/11/26 02:35:20;;;;;;;22.17;14.97;;;;;;;;;;5030526;28;20188;-50
2021/11/26 02:37:47;;;;;;;21.43;14.80;;;;;;;;;;5012916;28;20185;-52
2021/11/26 02:40:14;;;;;;;25.30;15.80;;;;;;;;;;5028688;28;20615;-52
2021/11/26 02:42:41;;;;;;;21.73;14.30;;;;;;;;;;5026351;28;20190;-51
2021/11/26 02:45:08;;;;;;;25.77;15.00;;;;;;;;;;5030419;28;20259;-50
2021/11/26 02:47:34;;;;;;;24.10;14.67;;;;;;;;;;5028792;28;20176;-52
2021/11/26 02:50:05;;;;;;;23.40;15.57;;;;;;;;;;5029779;28;20224;-51
2021/11/26 02:52:32;;;;;;;22.87;14.83;;;;;;;;;;5011630;28;20235;-52
2021/11/26 02:54:58;;;;;;;25.83;15.50;;;;;;;;;;5034367;28;20181;-52
2021/11/26 02:57:24;;;;;;;28.57;15.90;;;;;;;;;;5028206;28;20225;-51
2021/11/26 02:59:50;;;;;;;21.97;14.97;;;;;;;;;;5011265;28;20547;-52
2021/11/26 03:02:16;;;;;;;25.40;15.63;;;;;;;;;;5028622;28;20178;-53
2021/11/26 03:04:43;;;;;;;24.87;15.00;;;;;;;;;;5029819;28;20264;-51
2021/11/26 03:07:09;;;;;;;26.90;15.63;;;;;;;;;;5029603;28;20178;-52
2021/11/26 03:09:36;;;;;;;24.40;15.40;;;;;;;;;;5029194;28;20185;-52
2021/11/26 03:12:03;;;;;;;22.33;15.13;;;;;;;;;;5010022;28;20197;-52
2021/11/26 03:14:29;;;;;;;24.97;15.57;;;;;;;;;;5030130;28;20536;-51
2021/11/26 03:16:55;;;;;;;25.23;15.83;;;;;;;;;;5028288;28;20814;-53
2021/11/26 03:19:21;;;;;;;24.17;15.93;;;;;;;;;;5029342;28;20219;-51
2021/11/26 03:21:48;;;;;;;23.27;16.07;;;;;;;;;;5028610;28;20181;-52
2021/11/26 03:24:14;;;;;;;25.53;14.73;;;;;;;;;;4992736;28;20285;-50
2021/11/26 03:26:40;;;;;;;21.53;15.60;;;;;;;;;;5027626;28;20173;-53
2021/11/26 03:29:07;;;;;;;24.43;16.37;;;;;;;;;;5029311;28;20188;-51
2021/11/26 03:31:33;;;;;;;24.00;16.33;;;;;;;;;;5010000;28;20624;-50
2021/11/26 03:33:59;;;;;;;26.37;15.77;;;;;;;;;;5015215;28;20178;-53
2021/11/26 03:36:26;;;;;;;24.10;16.00;;;;;;;;;;5029247;28;20676;-51
2021/11/26 03:38:52;;;;;;;23.80;16.33;;;;;;;;;;5033502;28;20186;-50
2021/11/26 03:41:18;;;;;;;26.80;16.57;;;;;;;;;;5010492;28;20217;-50
2021/11/26 03:43:44;;;;;;;23.03;15.30;;;;;;;;;;5021728;28;20209;-51
2021/11/26 03:46:12;;;;;;;23.63;15.70;;;;;;;;;;5008633;28;20174;-52
2021/11/26 03:48:38;;;;;;;21.93;16.07;;;;;;;;;;5005849;28;20225;-52
2021/11/26 03:51:04;;;;;;;23.13;15.83;;;;;;;;;;5023377;28;20182;-51
2021/11/26 03:53:31;;;;;;;22.27;15.73;;;;;;;;;;5029299;28;20244;-51
2021/11/26 03:55:57;;;;;;;25.43;17.20;;;;;;;;;;5026035;28;20287;-51
2021/11/26 03:58:23;;;;;;;20.10;14.07;;;;;;;;;;5007887;28;20219;-52
2021/11/26 04:00:50;;;;;;;26.80;16.87;;;;;;;;;;5031080;28;20272;-52
2021/11/26 04:03:16;;;;;;;21.60;14.90;;;;;;;;;;5027925;28;20621;-52
2021/11/26 04:05:43;;;;;;;24.70;15.47;;;;;;;;;;5029180;28;20178;-51
2021/11/26 04:08:09;;;;;;;24.77;15.53;;;;;;;;;;5028010;28;20530;-51
2021/11/26 04:10:36;;;;;;;23.13;14.63;;;;;;;;;;5010665;28;20192;-51
2021/11/26 04:13:03;;;;;;;21.13;14.43;;;;;;;;;;5014338;28;20211;-51
2021/11/26 04:15:32;;;;;;;21.70;15.50;;;;;;;;;;5028438;28;20185;-51
2021/11/26 04:18:00;;;;;;;19.67;13.93;;;;;;;;;;5026550;28;20952;-52
2021/11/26 04:20:27;;;;;;;20.10;13.80;;;;;;;;;;4994925;28;20268;-52
2021/11/26 04:22:54;;;;;;;19.83;14.00;;;;;;;;;;5010543;28;20181;-53
2021/11/26 04:25:21;;;;;;;19.27;14.40;;;;;;;;;;4994464;28;20588;-52
2021/11/26 04:27:47;;;;;;;19.07;14.90;;;;;;;;;;5023151;28;20240;-52
2021/11/26 04:30:15;;;;;;;19.07;14.00;;;;;;;;;;5023939;28;20547;-51
2021/11/26 04:32:42;;;;;;;22.37;14.70;;;;;;;;;;5030612;28;20201;-53
2021/11/26 04:35:09;;;;;;;18.27;13.83;;;;;;;;;;5031508;28;20307;-51
2021/11/26 04:37:36;;;;;;;21.47;13.87;;;;;;;;;;5027960;28;20186;-52
2021/11/26 04:40:05;;;;;;;17.70;14.33;;;;;;;;;;5009812;28;20575;-52
2021/11/26 04:42:31;;;;;;;19.87;13.13;;;;;;;;;;5027657;28;20235;-52
2021/11/26 04:44:57;;;;;;;20.33;14.57;;;;;;;;;;5030808;28;20196;-52
2021/11/26 04:47:23;;;;;;;19.17;14.00;;;;;;;;;;5039031;28;20197;-52
2021/11/26 04:49:49;;;;;;;19.13;15.13;;;;;;;;;;5028304;28;20271;-51
2021/11/26 04:52:16;;;;;;;20.20;13.57;;;;;;;;;;5009620;28;20185;-52
2021/11/26 04:54:42;;;;;;;20.67;14.97;;;;;;;;;;5010505;28;20605;-50
2021/11/26 04:57:08;;;;;;;19.97;14.30;;;;;;;;;;5027627;28;20214;-52
2021/11/26 04:59:34;;;;;;;19.53;15.20;;;;;;;;;;5017565;28;20190;-51
2021/11/26 05:02:00;;;;;;;22.37;14.13;;;;;;;;;;5010955;28;20182;-53
2021/11/26 05:04:26;;;;;;;18.43;15.17;;;;;;;;;;5020809;28;20202;-52
2021/11/26 05:06:53;;;;;;;20.87;14.90;;;;;;;;;;5032018;28;20261;-53
2021/11/26 05:09:19;;;;;;;19.00;14.90;;;;;;;;;;5014500;28;20284;-53
2021/11/26 05:11:46;;;;;;;25.20;14.67;;;;;;;;;;5031286;28;20212;-52
2021/11/26 05:14:17;;;;;;;19.40;14.17;;;;;;;;;;5014740;28;21041;-52
2021/11/26 05:16:44;;;;;;;23.40;14.50;;;;;;;;;;5012810;28;20221;-52
2021/11/26 05:19:10;;;;;;;22.10;15.37;;;;;;;;;;5006005;28;20209;-50
2021/11/26 05:21:36;;;;;;;21.53;14.53;;;;;;;;;;5031478;28;20212;-52
2021/11/26 05:24:02;;;;;;;21.40;14.50;;;;;;;;;;5015882;28;20213;-50
2021/11/26 05:26:28;;;;;;;21.47;14.57;;;;;;;;;;5030659;28;20178;-52
2021/11/26 05:28:54;;;;;;;19.77;15.10;;;;;;;;;;5031935;28;20174;-51
2021/11/26 05:31:22;;;;;;;19.27;14.60;;;;;;;;;;5028726;28;20192;-51
2021/11/26 05:33:49;;;;;;;20.13;14.50;;;;;;;;;;5016116;28;20178;-51
2021/11/26 05:36:16;;;;;;;20.27;15.27;;;;;;;;;;5016772;28;20239;-52
2021/11/26 05:38:45;;;;;;;19.97;15.13;;;;;;;;;;5029158;28;20181;-51
2021/11/26 05:41:11;;;;;;;19.37;15.27;;;;;;;;;;4994563;28;20218;-52
2021/11/26 05:43:37;;;;;;;20.40;15.37;;;;;;;;;;5031748;28;20293;-51
2021/11/26 05:46:04;;;;;;;19.10;14.27;;;;;;;;;;5010021;28;20189;-52
2021/11/26 05:48:30;;;;;;;18.93;14.40;;;;;;;;;;5018730;28;20632;-52
2021/11/26 05:50:56;;;;;;;23.97;14.50;;;;;;;;;;5006547;28;20182;-53
2021/11/26 05:53:23;;;;;;;19.90;14.63;;;;;;;;;;5030322;28;20644;-51
2021/11/26 05:55:49;;;;;;;18.60;14.20;;;;;;;;;;5012701;28;20201;-51
2021/11/26 05:58:15;;;;;;;20.33;14.67;;;;;;;;;;5025340;28;20189;-51
2021/11/26 06:00:41;;;;;;;17.70;13.10;;;;;;;;;;5012897;28;20531;-50
2021/11/26 06:03:07;;;;;;;20.67;15.10;;;;;;;;;;5028356;28;20636;-51
2021/11/26 06:05:34;;;;;;;21.77;14.00;;;;;;;;;;5031106;28;20558;-52
2021/11/26 06:08:00;;;;;;;18.70;13.57;;;;;;;;;;5012892;28;20174;-53
2021/11/26 06:10:26;;;;;;;17.97;14.57;;;;;;;;;;5025131;28;20206;-51
2021/11/26 06:12:53;;;;;;;20.07;15.67;;;;;;;;;;5017856;28;20174;-50
2021/11/26 06:15:21;;;;;;;18.87;15.27;;;;;;;;;;5028559;28;20181;-52
2021/11/26 06:17:47;;;;;;;20.47;14.00;;;;;;;;;;5031562;28;20177;-51
2021/11/26 06:20:14;;;;;;;20.80;15.00;;;;;;;;;;5031036;28;20253;-51
2021/11/26 06:22:40;;;;;;;18.77;14.30;;;;;;;;;;5030990;28;20707;-51
2021/11/26 06:25:07;;;;;;;20.10;14.30;;;;;;;;;;5030069;28;20205;-50
2021/11/26 06:27:33;;;;;;;18.30;15.07;;;;;;;;;;5026034;28;20193;-50
2021/11/26 06:29:59;;;;;;;20.43;14.50;;;;;;;;;;5012829;28;20186;-50
2021/11/26 06:32:25;;;;;;;18.83;14.90;;;;;;;;;;5029669;28;20569;-51
2021/11/26 06:34:52;;;;;;;17.43;14.73;;;;;;;;;;5030463;28;20181;-50
2021/11/26 06:37:18;;;;;;;19.20;15.10;;;;;;;;;;5003197;28;20186;-50
2021/11/26 06:39:44;;;;;;;15.50;13.37;;;;;;;;;;5010345;28;20228;-51
2021/11/26 06:42:11;;;;;;;17.57;13.97;;;;;;;;;;5029665;28;20264;-52
2021/11/26 06:44:37;;;;;;;18.37;13.97;;;;;;;;;;5012566;28;20197;-50
2021/11/26 06:47:04;;;;;;;17.13;13.90;;;;;;;;;;5011214;28;20542;-50
2021/11/26 06:49:30;;;;;;;17.10;14.83;;;;;;;;;;5030511;28;20214;-52
2021/11/26 06:51:56;;;;;;;18.87;13.73;;;;;;;;;;5011709;28;20182;-51
2021/11/26 06:54:22;;;;;;;18.73;14.97;;;;;;;;;;5022792;28;20648;-50
2021/11/26 06:56:48;;;;;;;21.83;14.73;;;;;;;;;;5016377;28;20248;-50
2021/11/26 06:59:15;;;;;;;17.87;13.47;;;;;;;;;;5027184;28;20809;-53
2021/11/26 07:01:41;;;;;;;20.67;13.97;;;;;;;;;;5011844;28;20177;-51
2021/11/26 07:04:09;;;;;;;17.33;13.63;;;;;;;;;;5030639;28;20740;-50
2021/11/26 07:06:36;;;;;;;20.50;14.83;;;;;;;;;;5030419;28;20657;-50
2021/11/26 07:09:03;;;;;;;17.50;14.30;;;;;;;;;;5003113;28;20178;-50
2021/11/26 07:11:29;;;;;;;19.23;14.37;;;;;;;;;;5014543;28;20181;-54
2021/11/26 07:13:55;;;;;;;17.97;13.73;;;;;;;;;;5030269;28;20189;-51
2021/11/26 07:16:22;;;;;;;16.13;13.70;;;;;;;;;;5011502;28;20189;-49
2021/11/26 07:18:48;;;;;;;17.83;14.07;;;;;;;;;;5029991;28;20193;-51
2021/11/26 07:21:14;;;;;;;16.33;14.03;;;;;;;;;;5012221;28;20182;-51
2021/11/26 07:23:41;;;;;;;16.07;13.27;;;;;;;;;;5008965;28;20232;-51
2021/11/26 07:26:07;;;;;;;18.93;14.27;;;;;;;;;;4992641;28;20240;-51
2021/11/26 07:28:33;;;;;;;17.73;12.97;;;;;;;;;;5011645;28;20236;-51
2021/11/26 07:31:00;;;;;;;16.80;13.43;;;;;;;;;;5010144;28;20261;-51
2021/11/26 07:33:26;;;;;;;17.13;14.20;;;;;;;;;;5017880;28;20181;-51
2021/11/26 07:35:52;;;;;;;18.40;13.20;;;;;;;;;;5011735;28;20198;-50
2021/11/26 07:38:18;;;;;;;17.23;12.90;;;;;;;;;;5038873;28;20223;-51
2021/11/26 07:40:45;;;;;;;19.00;13.03;;;;;;;;;;5030362;28;20579;-51
2021/11/26 07:43:11;;;;;;;21.03;14.50;;;;;;;;;;5011284;28;20201;-52
2021/11/26 07:45:37;;;;;;;17.57;13.57;;;;;;;;;;5030127;28;20198;-50
2021/11/26 07:48:03;;;;;;;13.70;12.30;;;;;;;;;;5028054;28;20189;-51
2021/11/26 07:50:29;;;;;;;17.37;13.40;;;;;;;;;;5022976;28;20514;-51
2021/11/26 07:52:55;;;;;;;15.77;12.47;;;;;;;;;;4997244;28;20313;-52
2021/11/26 07:55:22;;;;;;;17.37;12.87;;;;;;;;;;5028871;28;20275;-51
2021/11/26 07:57:50;;;;;;;15.57;12.73;;;;;;;;;;5014620;28;20280;-50
2021/11/26 08:00:16;;;;;;;14.97;11.30;;;;;;;;;;5028651;28;20193;-52
2021/11/26 08:02:42;;;;;;;16.00;11.03;;;;;;;;;;5027425;28;20641;-52
2021/11/26 08:05:09;;;;;;;18.60;11.53;;;;;;;;;;5028535;28;20697;-50
2021/11/26 08:07:36;;;;;;;15.20;11.37;;;;;;;;;;5028823;28;20201;-52
2021/11/26 08:10:04;;;;;;;14.73;12.07;;;;;;;;;;5028211;28;20248;-52
2021/11/26 08:12:30;;;;;;;17.63;10.60;;;;;;;;;;5011671;28;20182;-51
2021/11/26 08:14:57;;;;;;;11.87;10.03;;;;;;;;;;5028872;28;20237;-53
2021/11/26 08:17:23;;;;;;;17.67;11.07;;;;;;;;;;5026071;28;20188;-52
2021/11/26 08:19:49;;;;;;;17.03;11.33;;;;;;;;;;5010862;28;20276;-52
2021/11/26 08:22:17;;;;;;;18.67;10.77;;;;;;;;;;5028030;28;20212;-52
2021/11/26 08:24:43;;;;;;;20.13;10.53;;;;;;;;;;5024909;28;20196;-53
2021/11/26 08:27:09;;;;;;;15.03;9.87;;;;;;;;;;5027042;28;20193;-53
2021/11/26 08:29:36;;;;;;;14.57;10.37;;;;;;;;;;5029080;28;20197;-54
2021/11/26 08:32:02;;;;;;;15.37;10.03;;;;;;;;;;5009362;28;20181;-51
2021/11/26 08:34:28;;;;;;;16.77;10.80;;;;;;;;;;5028072;28;20213;-52
2021/11/26 08:36:54;;;;;;;19.97;10.17;;;;;;;;;;5028502;28;20583;-52
2021/11/26 08:39:20;;;;;;;17.20;10.67;;;;;;;;;;5028292;28;20217;-52
2021/11/26 08:41:47;;;;;;;19.37;11.33;;;;;;;;;;5016704;28;20198;-52
2021/11/26 08:44:13;;;;;;;17.10;11.50;;;;;;;;;;5025060;28;20213;-53
2021/11/26 08:46:39;;;;;;;20.83;12.47;;;;;;;;;;5026582;28;20189;-54
2021/11/26 08:49:08;;;;;;;16.70;11.93;;;;;;;;;;5004206;28;20237;-51
2021/11/26 08:51:35;;;;;;;21.60;12.37;;;;;;;;;;5028120;28;20182;-52
2021/11/26 08:54:02;;;;;;;20.07;12.17;;;;;;;;;;5028270;28;20185;-52
2021/11/26 08:56:29;;;;;;;16.23;11.27;;;;;;;;;;5023702;28;20705;-51
2021/11/26 08:58:55;;;;;;;21.83;12.60;;;;;;;;;;5027453;28;20188;-52
2021/11/26 09:01:22;;;;;;;21.97;12.30;;;;;;;;;;5009479;28;20186;-52
2021/11/26 09:03:49;;;;;;;18.70;12.13;;;;;;;;;;5009474;28;20210;-52
2021/11/26 09:06:20;;;;;;;17.67;11.90;;;;;;;;;;5022814;28;20200;-52
2021/11/26 09:08:46;;;;;;;19.30;11.90;;;;;;;;;;5028035;28;20181;-53
2021/11/26 09:11:14;;;;;;;16.63;11.30;;;;;;;;;;5031351;28;20185;-52
2021/11/26 09:13:40;;;;;;;14.40;10.70;;;;;;;;;;5023955;28;20176;-52
2021/11/26 09:16:06;;;;;;;16.47;10.77;;;;;;;;;;5026924;28;20174;-52
2021/11/26 09:18:32;;;;;;;20.43;11.73;;;;;;;;;;5024916;28;20213;-53
2021/11/26 09:20:59;;;;;;;17.27;9.83;;;;;;;;;;5010443;28;20178;-54
2021/11/26 09:23:25;;;;;;;13.67;9.40;;;;;;;;;;5027934;28;20276;-51
2021/11/26 09:25:52;;;;;;;21.23;10.30;;;;;;;;;;5028420;28;20263;-51
2021/11/26 09:28:18;;;;;;;12.47;8.77;;;;;;;;;;5027798;28;20649;-53
2021/11/26 09:30:47;;;;;;;15.33;8.53;;;;;;;;;;5014069;28;20174;-52
2021/11/26 09:33:13;;;;;;;13.73;8.80;;;;;;;;;;5013952;28;20190;-53
2021/11/26 09:35:39;;;;;;;15.77;9.43;;;;;;;;;;5027461;28;20178;-53
2021/11/26 09:38:05;;;;;;;15.20;8.63;;;;;;;;;;5015234;28;20220;-53
2021/11/26 09:40:32;;;;;;;11.73;7.90;;;;;;;;;;5028247;28;20209;-53
2021/11/26 09:43:00;;;;;;;20.70;8.60;;;;;;;;;;5010499;28;20592;-52
2021/11/26 09:45:27;;;;;;;16.83;8.30;;;;;;;;;;5028596;28;20197;-52
2021/11/26 09:47:54;;;;;;;18.30;8.70;;;;;;;;;;5028250;28;20177;-53
2021/11/26 09:50:21;;;;;;;20.60;8.03;;;;;;;;;;5014417;28;20588;-52
2021/11/26 09:52:47;;;;;;;15.03;8.23;;;;;;;;;;5035372;28;20208;-54
2021/11/26 09:55:17;;;;;;;13.60;8.03;;;;;;;;;;5019640;28;20190;-53
2021/11/26 09:57:43;;;;;;;15.47;7.90;;;;;;;;;;5014737;28;20197;-52
2021/11/26 10:00:11;;;;;;;15.20;8.17;;;;;;;;;;5013572;28;20191;-52
2021/11/26 10:02:37;;;;;;;15.00;8.00;;;;;;;;;;5029879;28;20178;-54
2021/11/26 10:05:06;;;;;;;15.43;7.50;;;;;;;;;;5012727;28;20284;-52
2021/11/26 10:07:32;;;;;;;16.13;9.17;;;;;;;;;;5012733;28;20179;-53
2021/11/26 10:10:11;;;;;;;16.50;9.37;;;;;;;;;;5037036;28;20619;-52
2021/11/26 10:12:37;;;;;;;12.47;8.20;;;;;;;;;;5015227;28;20185;-51
2021/11/26 10:15:05;;;;;;;13.37;8.20;;;;;;;;;;5013331;28;20186;-53
2021/11/26 10:17:32;;;;;;;16.27;10.07;;;;;;;;;;5022265;28;20221;-53
2021/11/26 10:20:07;;;;;;;18.97;9.53;;;;;;;;;;5013104;28;20189;-53
2021/11/26 10:22:38;;;;;;;14.73;9.77;;;;;;;;;;5013486;28;20246;-53
2021/11/26 10:25:19;;;;;;;17.90;9.77;;;;;;;;;;5030314;28;20822;-52
2021/11/26 10:27:55;;;;;;;16.17;10.33;;;;;;;;;;5014631;28;20196;-53
2021/11/26 10:30:23;;;;;;;22.93;11.33;;;;;;;;;;5029468;28;20580;-53
2021/11/26 10:33:25;;;;;;;17.17;11.43;;;;;;;;;;5029721;28;20202;-53
2021/11/26 10:35:51;;;;;;;20.07;11.40;;;;;;;;;;4961994;28;20247;-53
2021/11/26 10:38:26;;;;;;;21.33;11.47;;;;;;;;;;5009958;28;20178;-53
2021/11/26 10:41:04;;;;;;;24.27;12.23;;;;;;;;;;5014891;28;20265;-53
2021/11/26 10:43:50;;;;;;;19.33;11.23;;;;;;;;;;5020208;28;20239;-54
2021/11/26 10:57:26;;;;;;;15.60;10.07;;;;;;;;;;5030610;28;20711;-52
2021/11/26 10:59:53;;;;;;;19.97;10.27;;;;;;;;;;5029566;28;20173;-51
2021/11/26 11:02:30;;;;;;;16.50;10.07;;;;;;;;;;5011351;28;20174;-52
2021/11/26 11:04:56;;;;;;;14.13;7.93;;;;;;;;;;5030577;28;20459;-52
2021/11/26 11:07:23;;;;;;;13.63;9.20;;;;;;;;;;5012532;28;20543;-52
2021/11/26 11:09:52;;;;;;;16.47;7.67;;;;;;;;;;5022053;28;20170;-52
2021/11/26 11:12:28;;;;;;;15.63;8.57;;;;;;;;;;5010745;28;20218;-53
2021/11/26 11:14:55;;;;;;;11.03;7.27;;;;;;;;;;5028828;28;20684;-53
2021/11/26 11:17:24;;;;;;;14.53;7.80;;;;;;;;;;5023408;28;20190;-53
2021/11/26 11:19:52;;;;;;;12.93;7.63;;;;;;;;;;5030236;28;20264;-54
2021/11/26 11:22:18;;;;;;;13.80;7.43;;;;;;;;;;5029643;28;20180;-52
2021/11/26 11:24:45;;;;;;;12.07;7.50;;;;;;;;;;5014931;28;20198;-52
2021/11/26 11:27:11;;;;;;;11.43;7.40;;;;;;;;;;5002649;28;20174;-54
2021/11/26 11:29:37;;;;;;;11.37;6.70;;;;;;;;;;5005201;28;20189;-52
2021/11/26 11:32:04;;;;;;;10.83;6.67;;;;;;;;;;5028483;28;20172;-52
2021/11/26 11:34:31;;;;;;;10.53;6.23;;;;;;;;;;5039447;28;20227;-52
2021/11/26 11:37:00;;;;;;;10.20;5.83;;;;;;;;;;5029798;28;20280;-54
2021/11/26 11:39:27;;;;;;;11.60;5.67;;;;;;;;;;5023937;28;20667;-53
2021/11/26 11:41:54;;;;;;;9.67;5.60;;;;;;;;;;5029062;28;20188;-53
2021/11/26 11:44:31;;;;;;;9.60;5.10;;;;;;;;;;5027212;28;20194;-54
2021/11/26 11:46:59;;;;;;;10.73;4.70;;;;;;;;;;5028270;28;20249;-54
2021/11/26 11:49:30;;;;;;;12.43;4.23;;;;;;;;;;5027790;28;20237;-54
2021/11/26 11:52:01;;;;;;;7.50;4.57;;;;;;;;;;5011789;28;20205;-53
2021/11/26 11:54:38;;;;;;;10.20;4.57;;;;;;;;;;5025203;28;20198;-53
2021/11/26 11:57:06;;;;;;;7.73;3.90;;;;;;;;;;5011531;28;20282;-54
2021/11/26 11:59:33;;;;;;;9.17;3.77;;;;;;;;;;5029030;28;20186;-53
2021/11/26 12:02:01;;;;;;;7.93;3.83;;;;;;;;;;5027333;28;20621;-53
2021/11/26 12:04:34;;;;;;;7.43;3.80;;;;;;;;;;5029250;28;20201;-53
2021/11/26 12:07:01;;;;;;;8.50;4.63;;;;;;;;;;5029280;28;20170;-52
2021/11/26 12:09:28;;;;;;;10.67;3.67;;;;;;;;;;5008821;28;20555;-53
2021/11/26 12:12:12;;;;;;;8.97;3.80;;;;;;;;;;5010781;28;20177;-52
2021/11/26 12:14:55;;;;;;;9.30;3.57;;;;;;;;;;5029191;28;20186;-52
2021/11/26 12:17:31;;;;;;;4.03;3.27;;;;;;;;;;5021987;28;20706;-54
2021/11/26 12:20:11;;;;;;;7.77;3.53;;;;;;;;;;5010011;28;20185;-53
2021/11/26 12:22:40;;;;;;;7.43;3.53;;;;;;;;;;5035356;28;20200;-53
2021/11/26 12:25:49;;;;;;;10.00;3.63;;;;;;;;;;5011119;28;20212;-54
2021/11/26 12:28:26;;;;;;;7.50;3.67;;;;;;;;;;5027262;28;20196;-53
2021/11/26 12:31:02;;;;;;;8.47;3.73;;;;;;;;;;5028521;28;20177;-54
2021/11/26 12:33:29;;;;;;;9.40;3.23;;;;;;;;;;5029071;28;20192;-53
2021/11/26 12:36:00;;;;;;;6.63;3.13;;;;;;;;;;5028533;28;20553;-54
2021/11/26 12:38:46;;;;;;;3.77;2.77;;;;;;;;;;5009775;28;20277;-53
2021/11/26 12:41:13;;;;;;;8.60;3.93;;;;;;;;;;5026254;28;20272;-54
2021/11/26 12:43:44;;;;;;;9.00;3.70;;;;;;;;;;4998733;28;20657;-53
2021/11/26 12:46:27;;;;;;;7.40;2.93;;;;;;;;;;4990276;28;20902;-54
2021/11/26 12:51:43;;;;;;;8.57;3.80;;;;;;;;;;5028462;28;20231;-54
2021/11/26 12:54:10;;;;;;;9.97;3.87;;;;;;;;;;4996788;28;20663;-53
2021/11/26 12:56:40;;;;;;;6.17;3.03;;;;;;;;;;4985968;28;20210;-53
2021/11/26 12:59:06;;;;;;;7.97;3.30;;;;;;;;;;5024008;28;20679;-53
2021/11/26 13:01:33;;;;;;;10.23;3.20;;;;;;;;;;4997671;28;20182;-53
2021/11/26 13:04:00;;;;;;;9.03;4.60;;;;;;;;;;5005653;28;20241;-52
2021/11/26 13:06:28;;;;;;;6.17;3.50;;;;;;;;;;5010417;28;20644;-53
2021/11/26 13:08:59;;;;;;;9.90;3.27;;;;;;;;;;5027858;28;20181;-52
2021/11/26 13:11:25;;;;;;;8.47;3.97;;;;;;;;;;5027117;28;20174;-52
2021/11/26 13:14:00;;;;;;;6.47;3.10;;;;;;;;;;5010796;28;20252;-53
2021/11/26 13:16:26;;;;;;;9.83;4.30;;;;;;;;;;5009553;28;20227;-53
2021/11/26 13:18:52;;;;;;;3.80;2.80;;;;;;;;;;5028511;28;20186;-53
2021/11/26 13:21:19;;;;;;;12.50;3.80;;;;;;;;;;5029223;28;20256;-52
2021/11/26 13:23:45;;;;;;;11.00;3.83;;;;;;;;;;5012431;28;21055;-53
2021/11/26 13:26:12;;;;;;;18.43;4.80;;;;;;;;;;5032339;28;20170;-53
2021/11/26 13:28:40;;;;;;;12.83;3.47;;;;;;;;;;5014551;28;20182;-52
2021/11/26 13:31:12;;;;;;;10.00;3.90;;;;;;;;;;5013187;28;20544;-53
2021/11/26 13:33:40;;;;;;;9.60;4.07;;;;;;;;;;5032460;28;20181;-52
2021/11/26 13:36:07;;;;;;;9.73;3.30;;;;;;;;;;5031438;28;20185;-52
2021/11/26 13:38:39;;;;;;;12.00;4.10;;;;;;;;;;5013361;28;20559;-53
2021/11/26 13:41:14;;;;;;;6.60;4.00;;;;;;;;;;5031574;28;20205;-53
2021/11/26 13:43:41;;;;;;;9.00;3.40;;;;;;;;;;5028009;28;20178;-52
2021/11/26 13:46:10;;;;;;;7.60;3.73;;;;;;;;;;5013360;28;20189;-52
2021/11/26 13:48:38;;;;;;;6.27;3.77;;;;;;;;;;5004019;28;20250;-52
2021/11/26 13:51:04;;;;;;;8.63;3.10;;;;;;;;;;5008876;28;20186;-52
2021/11/26 13:53:31;;;;;;;6.83;3.60;;;;;;;;;;5011291;28;20237;-52
2021/11/26 13:55:58;;;;;;;6.03;3.30;;;;;;;;;;5010890;28;20202;-52
2021/11/26 13:58:24;;;;;;;8.90;3.20;;;;;;;;;;5011596;28;20658;-52
2021/11/26 14:00:55;;;;;;;11.30;2.97;;;;;;;;;;4994139;28;20626;-53
2021/11/26 14:03:36;;;;;;;4.67;3.00;;;;;;;;;;5011592;28;20209;-52
2021/11/26 14:06:10;;;;;;;6.20;3.23;;;;;;;;;;4991879;28;20603;-52
2021/11/26 14:08:43;;;;;;;4.97;2.80;;;;;;;;;;5011416;28;20186;-52
2021/11/26 14:11:10;;;;;;;5.77;2.63;;;;;;;;;;4992711;28;20685;-52
2021/11/26 14:13:36;;;;;;;4.83;3.23;;;;;;;;;;5010331;28;20533;-51
2021/11/26 14:16:03;;;;;;;8.83;2.40;;;;;;;;;;5010080;28;20178;-52
2021/11/26 14:18:33;;;;;;;5.00;2.63;;;;;;;;;;5003297;28;20186;-52
2021/11/26 14:21:06;;;;;;;5.93;2.93;;;;;;;;;;5009143;28;20186;-53
2021/11/26 14:23:32;;;;;;;5.37;2.20;;;;;;;;;;5006653;28;20273;-50
2021/11/26 14:26:12;;;;;;;6.27;2.37;;;;;;;;;;4991403;28;20218;-51
2021/11/26 14:28:41;;;;;;;3.10;2.33;;;;;;;;;;5009565;28;20424;-53
2021/11/26 14:31:08;;;;;;;9.23;3.53;;;;;;;;;;5009588;28;20527;-54
2021/11/26 14:33:34;;;;;;;5.23;2.33;;;;;;;;;;5009278;28;20233;-53
2021/11/26 14:36:08;;;;;;;4.60;2.50;;;;;;;;;;4989020;28;20603;-52
2021/11/26 14:38:43;;;;;;;4.93;2.40;;;;;;;;;;4992245;28;20221;-54
2021/11/26 14:41:14;;;;;;;5.60;3.17;;;;;;;;;;5009469;28;20178;-53
2021/11/26 14:43:40;;;;;;;3.27;2.20;;;;;;;;;;5001618;28;20243;-53